CGNBR EGFF-EGBJ
Flight info
| Callsign | CGNBR |
|---|---|
| Flight time | 0h 54m |
| Altitude | 2500 |
| Route | EGFF EG34 EGBJ |
| Aircraft | C82R/L-V/N |
Departure
| Time | 2026-04-29 12:14 |
|---|---|
| Airport | Cardiff International Airport (EGFF) |
Arrival
| Time | 2026-04-29 13:08 |
|---|---|
| Airport | Gloucestershire Airport (EGBJ) |
| Time | Latitude | Longitude | Altitude | Speed | Heading |
|---|---|---|---|---|---|
| 2026-04-29 11:54 | 51.39401 | -3.34549 | 222 ft | 0 kts | 307° |
| 2026-04-29 11:55 | 51.39402 | -3.34549 | 222 ft | 0 kts | 308° |
| 2026-04-29 12:07 | 51.39414 | -3.34593 | 222 ft | 7 kts | 293° |
| 2026-04-29 12:07 | 51.39438 | -3.34649 | 220 ft | 3 kts | 57° |
| 2026-04-29 12:07 | 51.39448 | -3.34633 | 220 ft | 1 kts | 38° |
| 2026-04-29 12:08 | 51.39448 | -3.34632 | 220 ft | 0 kts | 37° |
| 2026-04-29 12:08 | 51.39451 | -3.34631 | 220 ft | 5 kts | 9° |
| 2026-04-29 12:08 | 51.39484 | -3.34743 | 221 ft | 12 kts | 245° |
| 2026-04-29 12:09 | 51.39461 | -3.34878 | 223 ft | 14 kts | 255° |
| 2026-04-29 12:09 | 51.39457 | -3.35012 | 224 ft | 14 kts | 344° |
| 2026-04-29 12:09 | 51.39576 | -3.34927 | 220 ft | 22 kts | 27° |
| 2026-04-29 12:09 | 51.39716 | -3.34830 | 214 ft | 21 kts | 23° |
| 2026-04-29 12:10 | 51.39900 | -3.34680 | 216 ft | 29 kts | 24° |
| 2026-04-29 12:10 | 51.39975 | -3.34740 | 215 ft | 13 kts | 296° |
| 2026-04-29 12:10 | 51.40013 | -3.34869 | 213 ft | 13 kts | 295° |
| 2026-04-29 12:10 | 51.40049 | -3.35001 | 211 ft | 13 kts | 302° |
| 2026-04-29 12:11 | 51.40093 | -3.35124 | 214 ft | 15 kts | 291° |
| 2026-04-29 12:11 | 51.40144 | -3.35308 | 216 ft | 20 kts | 295° |
| 2026-04-29 12:11 | 51.40110 | -3.35486 | 211 ft | 16 kts | 217° |
| 2026-04-29 12:11 | 51.40033 | -3.35479 | 213 ft | 0 kts | 112° |
| 2026-04-29 12:12 | 51.39975 | -3.35291 | 209 ft | 44 kts | 123° |
| 2026-04-29 12:12 | 51.39769 | -3.34653 | 238 ft | 81 kts | 117° |
| 2026-04-29 12:12 | 51.39449 | -3.33715 | 242 ft | 106 kts | 118° |
| 2026-04-29 12:12 | 51.39235 | -3.32580 | 269 ft | 111 kts | 79° |
| 2026-04-29 12:13 | 51.39785 | -3.31763 | 402 ft | 118 kts | 16° |
| 2026-04-29 12:13 | 51.40548 | -3.32309 | 600 ft | 136 kts | 315° |
| 2026-04-29 12:13 | 51.40934 | -3.33752 | 714 ft | 143 kts | 299° |
| 2026-04-29 12:13 | 51.41353 | -3.35164 | 803 ft | 138 kts | 317° |
| 2026-04-29 12:14 | 51.42035 | -3.36043 | 889 ft | 120 kts | 351° |
| 2026-04-29 12:14 | 51.42780 | -3.36630 | 994 ft | 116 kts | 348° |
| 2026-04-29 12:14 | 51.43535 | -3.37198 | 1115 ft | 127 kts | 348° |
| 2026-04-29 12:14 | 51.44377 | -3.37823 | 1224 ft | 138 kts | 348° |
| 2026-04-29 12:15 | 51.45247 | -3.38483 | 1344 ft | 139 kts | 349° |
| 2026-04-29 12:15 | 51.46130 | -3.39146 | 1452 ft | 140 kts | 349° |
| 2026-04-29 12:15 | 51.47003 | -3.39804 | 1558 ft | 137 kts | 349° |
| 2026-04-29 12:15 | 51.47873 | -3.40452 | 1662 ft | 139 kts | 349° |
| 2026-04-29 12:16 | 51.48768 | -3.41116 | 1712 ft | 145 kts | 348° |
| 2026-04-29 12:16 | 51.49708 | -3.41815 | 1716 ft | 152 kts | 347° |
| 2026-04-29 12:16 | 51.50663 | -3.42532 | 1719 ft | 155 kts | 348° |
| 2026-04-29 12:16 | 51.51648 | -3.43271 | 1722 ft | 156 kts | 347° |
| 2026-04-29 12:17 | 51.52627 | -3.44010 | 1704 ft | 155 kts | 347° |
| 2026-04-29 12:17 | 51.53579 | -3.44732 | 1703 ft | 140 kts | 346° |
| 2026-04-29 12:17 | 51.54387 | -3.45355 | 1698 ft | 120 kts | 348° |
| 2026-04-29 12:17 | 51.55076 | -3.45874 | 1701 ft | 97 kts | 349° |
| 2026-04-29 12:18 | 51.55693 | -3.46324 | 1705 ft | 100 kts | 351° |
| 2026-04-29 12:18 | 51.56279 | -3.46766 | 1703 ft | 85 kts | 352° |
| 2026-04-29 12:18 | 51.56809 | -3.47095 | 1703 ft | 81 kts | 9° |
| 2026-04-29 12:18 | 51.57392 | -3.46999 | 1727 ft | 90 kts | 20° |
| 2026-04-29 12:19 | 51.58064 | -3.46887 | 1730 ft | 103 kts | 19° |
| 2026-04-29 12:19 | 51.58808 | -3.46768 | 1729 ft | 111 kts | 18° |
| 2026-04-29 12:19 | 51.59590 | -3.46643 | 1737 ft | 115 kts | 17° |
| 2026-04-29 12:19 | 51.60422 | -3.46516 | 1720 ft | 124 kts | 13° |
| 2026-04-29 12:20 | 51.61275 | -3.47102 | 1727 ft | 155 kts | 324° |
| 2026-04-29 12:20 | 51.61791 | -3.48691 | 1721 ft | 164 kts | 298° |
| 2026-04-29 12:20 | 51.62257 | -3.50356 | 1755 ft | 162 kts | 302° |
| 2026-04-29 12:20 | 51.62725 | -3.51987 | 1901 ft | 158 kts | 298° |
| 2026-04-29 12:21 | 51.63263 | -3.53437 | 2050 ft | 142 kts | 323° |
| 2026-04-29 12:21 | 51.63905 | -3.54411 | 2176 ft | 113 kts | 331° |
| 2026-04-29 12:21 | 51.64428 | -3.55260 | 2322 ft | 103 kts | 328° |
| 2026-04-29 12:21 | 51.64938 | -3.56043 | 2502 ft | 104 kts | 334° |
| 2026-04-29 12:22 | 51.65428 | -3.56897 | 2628 ft | 92 kts | 343° |
| 2026-04-29 12:22 | 51.65831 | -3.56881 | 2699 ft | 54 kts | 41° |
| 2026-04-29 12:22 | 51.66266 | -3.56667 | 2699 ft | 75 kts | 39° |
| 2026-04-29 12:22 | 51.66746 | -3.56354 | 2704 ft | 71 kts | 39° |
| 2026-04-29 12:23 | 51.67214 | -3.56058 | 2705 ft | 73 kts | 39° |
| 2026-04-29 12:23 | 51.67703 | -3.55749 | 2711 ft | 80 kts | 39° |
| 2026-04-29 12:23 | 51.68268 | -3.55355 | 2710 ft | 98 kts | 38° |
| 2026-04-29 12:23 | 51.68920 | -3.54837 | 2699 ft | 106 kts | 38° |
| 2026-04-29 12:24 | 51.69546 | -3.54316 | 2702 ft | 97 kts | 39° |
| 2026-04-29 12:24 | 51.70159 | -3.53814 | 2705 ft | 103 kts | 39° |
| 2026-04-29 12:24 | 51.70824 | -3.53270 | 2706 ft | 111 kts | 38° |
| 2026-04-29 12:24 | 51.71515 | -3.52670 | 2707 ft | 114 kts | 39° |
| 2026-04-29 12:25 | 51.72221 | -3.52046 | 2703 ft | 117 kts | 39° |
| 2026-04-29 12:25 | 51.72941 | -3.51427 | 2706 ft | 118 kts | 38° |
| 2026-04-29 12:25 | 51.74379 | -3.50197 | 2702 ft | 117 kts | 39° |
| 2026-04-29 12:26 | 51.75092 | -3.49589 | 2699 ft | 114 kts | 39° |
| 2026-04-29 12:26 | 51.75790 | -3.49008 | 2716 ft | 112 kts | 38° |
| 2026-04-29 12:26 | 51.76474 | -3.48411 | 2724 ft | 111 kts | 39° |
| 2026-04-29 12:26 | 51.76814 | -3.47507 | 2719 ft | 88 kts | 83° |
| 2026-04-29 12:27 | 51.76861 | -3.46582 | 2728 ft | 78 kts | 81° |
| 2026-04-29 12:27 | 51.76913 | -3.45767 | 2734 ft | 67 kts | 81° |
| 2026-04-29 12:27 | 51.76951 | -3.45075 | 2735 ft | 55 kts | 82° |
| 2026-04-29 12:27 | 51.76979 | -3.44478 | 2741 ft | 53 kts | 81° |
| 2026-04-29 12:28 | 51.77003 | -3.43877 | 2749 ft | 56 kts | 82° |
| 2026-04-29 12:28 | 51.77035 | -3.43209 | 2763 ft | 64 kts | 82° |
| 2026-04-29 12:28 | 51.77075 | -3.42453 | 2773 ft | 73 kts | 82° |
| 2026-04-29 12:28 | 51.77137 | -3.41585 | 2734 ft | 76 kts | 82° |
| 2026-04-29 12:29 | 51.77184 | -3.41013 | 2746 ft | 37 kts | 81° |
| 2026-04-29 12:29 | 51.77213 | -3.40615 | 2734 ft | 32 kts | 81° |
| 2026-04-29 12:29 | 51.77235 | -3.40262 | 2762 ft | 35 kts | 82° |
| 2026-04-29 12:29 | 51.77265 | -3.39786 | 2785 ft | 50 kts | 82° |
| 2026-04-29 12:30 | 51.77306 | -3.39162 | 2790 ft | 61 kts | 81° |
| 2026-04-29 12:30 | 51.77340 | -3.38459 | 2789 ft | 65 kts | 81° |
| 2026-04-29 12:30 | 51.77372 | -3.37709 | 2792 ft | 67 kts | 82° |
| 2026-04-29 12:30 | 51.77410 | -3.36958 | 2795 ft | 69 kts | 82° |
| 2026-04-29 12:31 | 51.77453 | -3.36173 | 2798 ft | 72 kts | 82° |
| 2026-04-29 12:31 | 51.77499 | -3.35381 | 2802 ft | 69 kts | 82° |
| 2026-04-29 12:31 | 51.77542 | -3.34627 | 2804 ft | 67 kts | 81° |
| 2026-04-29 12:31 | 51.77571 | -3.33883 | 2800 ft | 66 kts | 82° |
| 2026-04-29 12:32 | 51.77555 | -3.33130 | 2805 ft | 75 kts | 97° |
| 2026-04-29 12:32 | 51.77332 | -3.32229 | 2817 ft | 94 kts | 97° |
| 2026-04-29 12:32 | 51.77270 | -3.31133 | 2824 ft | 102 kts | 81° |
| 2026-04-29 12:32 | 51.77468 | -3.30026 | 2828 ft | 103 kts | 72° |
| 2026-04-29 12:33 | 51.77700 | -3.28922 | 2836 ft | 102 kts | 70° |
| 2026-04-29 12:33 | 51.77939 | -3.27882 | 2838 ft | 98 kts | 69° |
| 2026-04-29 12:33 | 51.78183 | -3.26860 | 2845 ft | 98 kts | 70° |
| 2026-04-29 12:33 | 51.78437 | -3.25820 | 2850 ft | 102 kts | 70° |
| 2026-04-29 12:34 | 51.78705 | -3.24736 | 2848 ft | 105 kts | 70° |
| 2026-04-29 12:34 | 51.78978 | -3.23641 | 2853 ft | 105 kts | 70° |
| 2026-04-29 12:34 | 51.79251 | -3.22547 | 2858 ft | 106 kts | 70° |
| 2026-04-29 12:34 | 51.79526 | -3.21441 | 2860 ft | 107 kts | 70° |
| 2026-04-29 12:35 | 51.79804 | -3.20331 | 2865 ft | 105 kts | 69° |
| 2026-04-29 12:35 | 51.79983 | -3.19612 | 2865 ft | 104 kts | 69° |
| 2026-04-29 12:35 | 51.80346 | -3.18158 | 2866 ft | 103 kts | 70° |
| 2026-04-29 12:35 | 51.80611 | -3.17092 | 2878 ft | 104 kts | 70° |
| 2026-04-29 12:36 | 51.80882 | -3.16006 | 2870 ft | 104 kts | 70° |
| 2026-04-29 12:36 | 51.81154 | -3.14913 | 2874 ft | 105 kts | 70° |
| 2026-04-29 12:36 | 51.81427 | -3.13819 | 2879 ft | 105 kts | 70° |
| 2026-04-29 12:36 | 51.81708 | -3.12685 | 2889 ft | 113 kts | 70° |
| 2026-04-29 12:37 | 51.82005 | -3.11495 | 2895 ft | 115 kts | 70° |
| 2026-04-29 12:37 | 51.82202 | -3.10706 | 2901 ft | 113 kts | 71° |
| 2026-04-29 12:37 | 51.82355 | -3.09506 | 2889 ft | 110 kts | 92° |
| 2026-04-29 12:37 | 51.82172 | -3.08311 | 2894 ft | 109 kts | 98° |
| 2026-04-29 12:38 | 51.81991 | -3.07124 | 2906 ft | 109 kts | 98° |
| 2026-04-29 12:38 | 51.81809 | -3.05934 | 2905 ft | 109 kts | 98° |
| 2026-04-29 12:38 | 51.81627 | -3.04747 | 2914 ft | 108 kts | 98° |
| 2026-04-29 12:38 | 51.81445 | -3.03554 | 2917 ft | 111 kts | 98° |
| 2026-04-29 12:39 | 51.81325 | -3.02349 | 2913 ft | 105 kts | 82° |
| 2026-04-29 12:39 | 51.81622 | -3.01318 | 2910 ft | 105 kts | 53° |
| 2026-04-29 12:39 | 51.82290 | -3.00758 | 2908 ft | 118 kts | 22° |
| 2026-04-29 12:39 | 51.83134 | -3.00682 | 2910 ft | 123 kts | 15° |
| 2026-04-29 12:40 | 51.84000 | -3.00607 | 2909 ft | 126 kts | 17° |
| 2026-04-29 12:40 | 51.84880 | -3.00530 | 2909 ft | 128 kts | 17° |
| 2026-04-29 12:40 | 51.85759 | -3.00405 | 2894 ft | 123 kts | 26° |
| 2026-04-29 12:40 | 51.86494 | -2.99828 | 2886 ft | 116 kts | 39° |
| 2026-04-29 12:41 | 51.87201 | -2.99232 | 2879 ft | 114 kts | 38° |
| 2026-04-29 12:41 | 51.87933 | -2.98606 | 2749 ft | 123 kts | 38° |
| 2026-04-29 12:41 | 51.88700 | -2.97955 | 2623 ft | 126 kts | 37° |
| 2026-04-29 12:41 | 51.89478 | -2.97295 | 2506 ft | 127 kts | 37° |
| 2026-04-29 12:42 | 51.90179 | -2.96508 | 2450 ft | 117 kts | 56° |
| 2026-04-29 12:42 | 51.90628 | -2.95457 | 2446 ft | 112 kts | 60° |
| 2026-04-29 12:42 | 51.91076 | -2.94427 | 2440 ft | 111 kts | 60° |
| 2026-04-29 12:42 | 51.91518 | -2.93403 | 2439 ft | 112 kts | 59° |
| 2026-04-29 12:43 | 51.91962 | -2.92374 | 2426 ft | 111 kts | 60° |
| 2026-04-29 12:43 | 51.92406 | -2.91346 | 2428 ft | 112 kts | 59° |
| 2026-04-29 12:43 | 51.92853 | -2.90308 | 2429 ft | 112 kts | 58° |
| 2026-04-29 12:43 | 51.93302 | -2.89268 | 2424 ft | 112 kts | 59° |
| 2026-04-29 12:44 | 51.93804 | -2.88311 | 2419 ft | 115 kts | 50° |
| 2026-04-29 12:44 | 51.94384 | -2.87408 | 2415 ft | 115 kts | 49° |
| 2026-04-29 12:44 | 51.94945 | -2.86523 | 2416 ft | 111 kts | 49° |
| 2026-04-29 12:44 | 51.95495 | -2.85655 | 2411 ft | 110 kts | 50° |
| 2026-04-29 12:45 | 51.96047 | -2.84784 | 2404 ft | 111 kts | 51° |
| 2026-04-29 12:45 | 51.96600 | -2.83910 | 2405 ft | 111 kts | 51° |
| 2026-04-29 12:45 | 51.97154 | -2.83034 | 2404 ft | 112 kts | 51° |
| 2026-04-29 12:45 | 51.97714 | -2.82149 | 2401 ft | 113 kts | 50° |
| 2026-04-29 12:46 | 51.98283 | -2.81249 | 2396 ft | 115 kts | 50° |
| 2026-04-29 12:46 | 51.98860 | -2.80337 | 2330 ft | 117 kts | 49° |
| 2026-04-29 12:46 | 51.99441 | -2.79420 | 2328 ft | 117 kts | 50° |
| 2026-04-29 12:46 | 52.00020 | -2.78505 | 2329 ft | 114 kts | 51° |
| 2026-04-29 12:47 | 52.00548 | -2.77675 | 2321 ft | 100 kts | 52° |
| 2026-04-29 12:47 | 52.01003 | -2.76959 | 2320 ft | 86 kts | 53° |
| 2026-04-29 12:47 | 52.01411 | -2.76314 | 2310 ft | 78 kts | 54° |
| 2026-04-29 12:47 | 52.01784 | -2.75720 | 2323 ft | 73 kts | 53° |
| 2026-04-29 12:48 | 52.02142 | -2.75152 | 2318 ft | 71 kts | 53° |
| 2026-04-29 12:48 | 52.02483 | -2.74609 | 2320 ft | 67 kts | 54° |
| 2026-04-29 12:48 | 52.02810 | -2.74090 | 2323 ft | 64 kts | 54° |
| 2026-04-29 12:48 | 52.03120 | -2.73599 | 2325 ft | 60 kts | 54° |
| 2026-04-29 12:49 | 52.03413 | -2.73133 | 2322 ft | 59 kts | 54° |
| 2026-04-29 12:49 | 52.03765 | -2.72775 | 2324 ft | 63 kts | 37° |
| 2026-04-29 12:49 | 52.04151 | -2.72484 | 2325 ft | 60 kts | 40° |
| 2026-04-29 12:49 | 52.04527 | -2.72201 | 2322 ft | 60 kts | 40° |
| 2026-04-29 12:50 | 52.04905 | -2.71915 | 2325 ft | 61 kts | 40° |
| 2026-04-29 12:50 | 52.05293 | -2.71621 | 2331 ft | 63 kts | 39° |
| 2026-04-29 12:50 | 52.05694 | -2.71318 | 2349 ft | 64 kts | 40° |
| 2026-04-29 12:50 | 52.06103 | -2.71008 | 2342 ft | 65 kts | 40° |
| 2026-04-29 12:51 | 52.06516 | -2.70697 | 2356 ft | 65 kts | 41° |
| 2026-04-29 12:51 | 52.06928 | -2.70386 | 2350 ft | 65 kts | 40° |
| 2026-04-29 12:51 | 52.07341 | -2.70073 | 2348 ft | 67 kts | 40° |
| 2026-04-29 12:51 | 52.07748 | -2.69714 | 2346 ft | 63 kts | 54° |
| 2026-04-29 12:52 | 52.07913 | -2.69091 | 2342 ft | 60 kts | 84° |
| 2026-04-29 12:52 | 52.07841 | -2.68432 | 2337 ft | 57 kts | 93° |
| 2026-04-29 12:52 | 52.07764 | -2.67822 | 2331 ft | 53 kts | 93° |
| 2026-04-29 12:52 | 52.07693 | -2.67269 | 2327 ft | 48 kts | 92° |
| 2026-04-29 12:53 | 52.07619 | -2.66670 | 2362 ft | 60 kts | 93° |
| 2026-04-29 12:53 | 52.07526 | -2.65925 | 2352 ft | 75 kts | 95° |
| 2026-04-29 12:53 | 52.07415 | -2.65041 | 2356 ft | 84 kts | 95° |
| 2026-04-29 12:53 | 52.07290 | -2.64064 | 2349 ft | 91 kts | 96° |
| 2026-04-29 12:54 | 52.07157 | -2.63034 | 2356 ft | 95 kts | 96° |
| 2026-04-29 12:54 | 52.07022 | -2.61982 | 2352 ft | 95 kts | 96° |
| 2026-04-29 12:54 | 52.06888 | -2.60944 | 2351 ft | 94 kts | 96° |
| 2026-04-29 12:54 | 52.06753 | -2.59895 | 2355 ft | 94 kts | 96° |
| 2026-04-29 12:55 | 52.06620 | -2.58857 | 2351 ft | 93 kts | 96° |
| 2026-04-29 12:55 | 52.06486 | -2.57819 | 2337 ft | 94 kts | 96° |
| 2026-04-29 12:55 | 52.06352 | -2.56768 | 2345 ft | 96 kts | 97° |
| 2026-04-29 12:55 | 52.06214 | -2.55697 | 2339 ft | 97 kts | 97° |
| 2026-04-29 12:56 | 52.06078 | -2.54643 | 2344 ft | 96 kts | 97° |
| 2026-04-29 12:56 | 52.05941 | -2.53585 | 2339 ft | 95 kts | 97° |
| 2026-04-29 12:56 | 52.05805 | -2.52532 | 2339 ft | 96 kts | 97° |
| 2026-04-29 12:56 | 52.05667 | -2.51459 | 2340 ft | 98 kts | 97° |
| 2026-04-29 12:57 | 52.05526 | -2.50361 | 2338 ft | 100 kts | 97° |
| 2026-04-29 12:57 | 52.05383 | -2.49256 | 2334 ft | 99 kts | 97° |
| 2026-04-29 12:57 | 52.05244 | -2.48188 | 2334 ft | 97 kts | 97° |
| 2026-04-29 12:57 | 52.05106 | -2.47118 | 2332 ft | 97 kts | 96° |
| 2026-04-29 12:58 | 52.04966 | -2.46041 | 2332 ft | 97 kts | 96° |
| 2026-04-29 12:58 | 52.04826 | -2.44957 | 2336 ft | 99 kts | 97° |
| 2026-04-29 12:58 | 52.04524 | -2.43903 | 2229 ft | 114 kts | 126° |
| 2026-04-29 12:58 | 52.03716 | -2.43479 | 2109 ft | 133 kts | 166° |
| 2026-04-29 12:59 | 52.02773 | -2.43722 | 1989 ft | 148 kts | 195° |
| 2026-04-29 12:59 | 52.02002 | -2.44804 | 1851 ft | 145 kts | 231° |
| 2026-04-29 12:59 | 52.01638 | -2.46332 | 1988 ft | 130 kts | 255° |
| 2026-04-29 12:59 | 52.01208 | -2.47640 | 2033 ft | 125 kts | 235° |
| 2026-04-29 13:00 | 52.00775 | -2.48799 | 2184 ft | 118 kts | 205° |
| 2026-04-29 13:00 | 51.99961 | -2.48849 | 1875 ft | 116 kts | 148° |
| 2026-04-29 13:00 | 51.99243 | -2.48479 | 1557 ft | 106 kts | 148° |
| 2026-04-29 13:00 | 51.98736 | -2.48017 | 1433 ft | 63 kts | 104° |
| 2026-04-29 13:01 | 51.98718 | -2.47399 | 1330 ft | 60 kts | 68° |
| 2026-04-29 13:01 | 51.99051 | -2.47053 | 1540 ft | 59 kts | 31° |
| 2026-04-29 13:01 | 51.99560 | -2.46822 | 1312 ft | 94 kts | 32° |
| 2026-04-29 13:01 | 52.00280 | -2.46415 | 1089 ft | 126 kts | 21° |
| 2026-04-29 13:02 | 52.01190 | -2.46801 | 995 ft | 147 kts | 333° |
| 2026-04-29 13:02 | 52.01671 | -2.48334 | 984 ft | 164 kts | 281° |
| 2026-04-29 13:02 | 52.01476 | -2.50108 | 982 ft | 162 kts | 237° |
| 2026-04-29 13:02 | 52.00638 | -2.50845 | 903 ft | 126 kts | 198° |
| 2026-04-29 13:03 | 51.99887 | -2.51067 | 929 ft | 97 kts | 131° |
| 2026-04-29 13:03 | 51.99872 | -2.50150 | 664 ft | 102 kts | 77° |
| 2026-04-29 13:03 | 51.99882 | -2.49055 | 326 ft | 91 kts | 89° |
| 2026-04-29 13:03 | 51.99993 | -2.48161 | 178 ft | 70 kts | 65° |
| 2026-04-29 13:04 | 52.00135 | -2.47640 | 142 ft | 26 kts | 66° |
| 2026-04-29 13:04 | 52.00148 | -2.47591 | 141 ft | 0 kts | 57° |
| 2026-04-29 13:04 | 52.00174 | -2.47460 | 139 ft | 31 kts | 77° |
| 2026-04-29 13:04 | 52.00267 | -2.46980 | 158 ft | 60 kts | 70° |
| 2026-04-29 13:05 | 52.00119 | -2.46234 | 307 ft | 88 kts | 134° |
| 2026-04-29 13:05 | 51.99519 | -2.45798 | 511 ft | 101 kts | 136° |
| 2026-04-29 13:05 | 51.99103 | -2.44859 | 628 ft | 108 kts | 115° |
| 2026-04-29 13:05 | 51.98753 | -2.43772 | 754 ft | 111 kts | 108° |
| 2026-04-29 13:06 | 51.98424 | -2.42601 | 888 ft | 117 kts | 108° |
| 2026-04-29 13:06 | 51.98065 | -2.41404 | 993 ft | 120 kts | 107° |
| 2026-04-29 13:06 | 51.97668 | -2.40189 | 998 ft | 124 kts | 109° |
| 2026-04-29 13:06 | 51.97242 | -2.38939 | 1000 ft | 128 kts | 110° |
| 2026-04-29 13:07 | 51.96811 | -2.37701 | 993 ft | 122 kts | 108° |
| 2026-04-29 13:07 | 51.96395 | -2.36518 | 1006 ft | 122 kts | 110° |
| 2026-04-29 13:07 | 51.95996 | -2.35396 | 1163 ft | 98 kts | 112° |
| 2026-04-29 13:07 | 51.95707 | -2.34597 | 1410 ft | 68 kts | 105° |
| 2026-04-29 13:08 | 51.95508 | -2.34032 | 1524 ft | 52 kts | 106° |
| 2026-04-29 13:08 | 51.95336 | -2.33540 | 1541 ft | 44 kts | 103° |
| 2026-04-29 13:08 | 51.95194 | -2.33126 | 1496 ft | 44 kts | 104° |
| 2026-04-29 13:08 | 51.95062 | -2.32755 | 1508 ft | 30 kts | 97° |
| 2026-04-29 13:09 | 51.94943 | -2.32410 | 1394 ft | 37 kts | 101° |
| 2026-04-29 13:09 | 51.94841 | -2.32110 | 1367 ft | 28 kts | 94° |
| 2026-04-29 13:09 | 51.94756 | -2.31880 | 1335 ft | 22 kts | 92° |
| 2026-04-29 13:09 | 51.94690 | -2.31688 | 1262 ft | 22 kts | 88° |
| 2026-04-29 13:10 | 51.94606 | -2.31441 | 1324 ft | 36 kts | 97° |
| 2026-04-29 13:10 | 51.94445 | -2.30996 | 1479 ft | 49 kts | 105° |
| 2026-04-29 13:10 | 51.94261 | -2.30471 | 1744 ft | 31 kts | 100° |
| 2026-04-29 13:10 | 51.94120 | -2.30106 | 1858 ft | 43 kts | 105° |
| 2026-04-29 13:11 | 51.94013 | -2.29791 | 2084 ft | 39 kts | 103° |
| 2026-04-29 13:11 | 51.93819 | -2.29171 | 1991 ft | 85 kts | 109° |
| 2026-04-29 13:11 | 51.93510 | -2.28288 | 2149 ft | 94 kts | 112° |
| 2026-04-29 13:11 | 51.93154 | -2.27285 | 2116 ft | 113 kts | 111° |
| 2026-04-29 13:12 | 51.92807 | -2.26346 | 2656 ft | 79 kts | 110° |
| 2026-04-29 13:12 | 51.92618 | -2.25838 | 3127 ft | 31 kts | 102° |
| 2026-04-29 13:12 | 51.92506 | -2.25507 | 3145 ft | 39 kts | 104° |
| 2026-04-29 13:12 | 51.92400 | -2.25206 | 3251 ft | 26 kts | 101° |
| 2026-04-29 13:13 | 51.92309 | -2.24947 | 3273 ft | 23 kts | 99° |
| 2026-04-29 13:13 | 51.92225 | -2.24696 | 3193 ft | 37 kts | 104° |
| 2026-04-29 13:13 | 51.92193 | -2.24175 | 3153 ft | 74 kts | 32° |
| 2026-04-29 13:13 | 51.92651 | -2.24341 | 2938 ft | 79 kts | 97° |
| 2026-04-29 13:14 | 51.92458 | -2.23220 | 1752 ft | 123 kts | 103° |
| 2026-04-29 13:14 | 51.92104 | -2.22320 | 2015 ft | 65 kts | 136° |
| 2026-04-29 13:14 | 51.91584 | -2.22038 | 1900 ft | 95 kts | 140° |
| 2026-04-29 13:14 | 51.90908 | -2.21605 | 1791 ft | 110 kts | 141° |
| 2026-04-29 13:15 | 51.90249 | -2.21089 | 1845 ft | 99 kts | 134° |
| 2026-04-29 13:15 | 51.89710 | -2.20480 | 1951 ft | 70 kts | 112° |
| 2026-04-29 13:15 | 51.89809 | -2.20258 | 2299 ft | 22 kts | 70° |
| 2026-04-29 13:15 | 51.89809 | -2.20255 | 918 ft | 67 kts | 57° |
| 2026-04-29 13:16 | 51.89425 | -2.19861 | 906 ft | 90 kts | 150° |
| 2026-04-29 13:16 | 51.88899 | -2.19742 | 1323 ft | 74 kts | 153° |
| 2026-04-29 13:16 | 51.88340 | -2.19617 | 1517 ft | 85 kts | 154° |
| 2026-04-29 13:16 | 51.87652 | -2.19511 | 1515 ft | 115 kts | 166° |
| 2026-04-29 13:17 | 51.86848 | -2.19457 | 1705 ft | 115 kts | 163° |
| 2026-04-29 13:17 | 51.86039 | -2.19274 | 1679 ft | 133 kts | 167° |
| 2026-04-29 13:17 | 51.85427 | -2.20692 | 1094 ft | 184 kts | 277° |
| 2026-04-29 13:17 | 51.85616 | -2.22560 | 1306 ft | 164 kts | 292° |
| 2026-04-29 13:18 | 51.86166 | -2.23810 | 1907 ft | 74 kts | 4° |
| 2026-04-29 13:18 | 51.86180 | -2.23852 | 1279 ft | 34 kts | 339° |
| 2026-04-29 13:18 | 51.86485 | -2.23962 | 1211 ft | 74 kts | 9° |
| 2026-04-29 13:18 | 51.87136 | -2.24110 | 1377 ft | 91 kts | 10° |
| 2026-04-29 13:19 | 51.87711 | -2.24314 | 1859 ft | 74 kts | 352° |
| 2026-04-29 13:19 | 51.88167 | -2.24837 | 2050 ft | 91 kts | 348° |
| 2026-04-29 13:19 | 51.88577 | -2.25224 | 2566 ft | 5 kts | 83° |
| 2026-04-29 13:19 | 51.88658 | -2.24747 | 932 ft | 129 kts | 66° |
| 2026-04-29 13:20 | 51.89111 | -2.23467 | 903 ft | 101 kts | 60° |
| 2026-04-29 13:20 | 51.89464 | -2.22747 | 1408 ft | 56 kts | 46° |
| 2026-04-29 13:20 | 51.89780 | -2.22684 | 1734 ft | 52 kts | 5° |
| 2026-04-29 13:20 | 51.90073 | -2.22835 | 1784 ft | 39 kts | 25° |
| 2026-04-29 13:21 | 51.90364 | -2.22901 | 1825 ft | 40 kts | 36° |
| 2026-04-29 13:21 | 51.90613 | -2.22808 | 1873 ft | 36 kts | 71° |
| 2026-04-29 13:21 | 51.90558 | -2.22357 | 1983 ft | 49 kts | 100° |
| 2026-04-29 13:21 | 51.90226 | -2.21906 | 2026 ft | 89 kts | 147° |
| 2026-04-29 13:22 | 51.89600 | -2.21705 | 2181 ft | 96 kts | 153° |
| 2026-04-29 13:22 | 51.88954 | -2.21530 | 2413 ft | 89 kts | 148° |
| 2026-04-29 13:22 | 51.88340 | -2.21083 | 2301 ft | 105 kts | 131° |
| 2026-04-29 13:22 | 51.88007 | -2.20552 | 1881 ft | 101 kts | 113° |
| 2026-04-29 13:23 | 51.87754 | -2.19458 | 1328 ft | 96 kts | 101° |
| 2026-04-29 13:23 | 51.87617 | -2.18415 | 818 ft | 98 kts | 90° |
| 2026-04-29 13:23 | 51.87639 | -2.17443 | 1010 ft | 81 kts | 78° |
| 2026-04-29 13:23 | 51.87873 | -2.16238 | 1245 ft | 84 kts | 72° |
| 2026-04-29 13:24 | 51.88013 | -2.15684 | 1486 ft | 75 kts | 72° |
| 2026-04-29 13:24 | 51.88482 | -2.15075 | 1222 ft | 122 kts | 25° |
| 2026-04-29 13:24 | 51.89381 | -2.15208 | 917 ft | 124 kts | 345° |
| 2026-04-29 13:24 | 51.89882 | -2.16209 | 761 ft | 117 kts | 293° |
| 2026-04-29 13:25 | 51.89885 | -2.17623 | 637 ft | 125 kts | 264° |
| 2026-04-29 13:25 | 51.89452 | -2.20388 | 772 ft | 135 kts | 264° |
| 2026-04-29 13:25 | 51.89018 | -2.21519 | 801 ft | 92 kts | 146° |
| 2026-04-29 13:26 | 51.88982 | -2.20688 | 577 ft | 87 kts | 71° |
| 2026-04-29 13:26 | 51.89169 | -2.19695 | 361 ft | 92 kts | 75° |
| 2026-04-29 13:26 | 51.89280 | -2.18724 | 202 ft | 77 kts | 81° |
| 2026-04-29 13:26 | 51.89333 | -2.17921 | 105 ft | 65 kts | 82° |
| 2026-04-29 13:27 | 51.89374 | -2.17313 | 86 ft | 44 kts | 79° |
| 2026-04-29 13:27 | 51.89407 | -2.16840 | 96 ft | 40 kts | 84° |
| 2026-04-29 13:27 | 51.89425 | -2.16426 | 94 ft | 31 kts | 83° |
| 2026-04-29 13:27 | 51.89452 | -2.16078 | 92 ft | 30 kts | 79° |
| 2026-04-29 13:28 | 51.89398 | -2.15906 | 90 ft | 20 kts | 139° |
| 2026-04-29 13:28 | 51.89303 | -2.15834 | 96 ft | 8 kts | 163° |
| 2026-04-29 13:28 | 51.89273 | -2.15820 | 96 ft | 4 kts | 92° |
| 2026-04-29 13:28 | 51.89286 | -2.15823 | 96 ft | 0 kts | 339° |